sensor_id;sensor_type;location;lat;lon;timestamp;pressure;altitude;pressure_sealevel;temperature;humidity
17254;BME280;32542;52.832;13.816;2023-11-21T00:01:57;100827.47;;;21.26;54.33
17254;BME280;32542;52.832;13.816;2023-11-21T00:05:02;100821.34;;;21.24;54.32
17254;BME280;32542;52.832;13.816;2023-11-21T00:08:05;100837.34;;;21.24;54.25
17254;BME280;32542;52.832;13.816;2023-11-21T00:11:08;100833.81;;;21.23;54.39
17254;BME280;32542;52.832;13.816;2023-11-21T00:14:11;100832.00;;;21.24;54.24
17254;BME280;32542;52.832;13.816;2023-11-21T00:17:16;100835.63;;;21.23;54.24
17254;BME280;32542;52.832;13.816;2023-11-21T00:20:20;100836.47;;;21.23;54.20
17254;BME280;32542;52.832;13.816;2023-11-21T00:23:23;100838.28;;;21.23;54.16
17254;BME280;32542;52.832;13.816;2023-11-21T00:26:27;100844.53;;;21.22;54.21
17254;BME280;32542;52.832;13.816;2023-11-21T00:29:35;100858.78;;;21.21;54.27
17254;BME280;32542;52.832;13.816;2023-11-21T00:32:40;100857.06;;;21.20;54.24
17254;BME280;32542;52.832;13.816;2023-11-21T00:35:44;100852.63;;;21.20;54.23
17254;BME280;32542;52.832;13.816;2023-11-21T00:38:47;100853.53;;;21.19;54.15
17254;BME280;32542;52.832;13.816;2023-11-21T00:41:51;100852.66;;;21.19;54.33
17254;BME280;32542;52.832;13.816;2023-11-21T00:44:54;100864.28;;;21.18;54.21
17254;BME280;32542;52.832;13.816;2023-11-21T00:47:57;100865.13;;;21.18;54.22
17254;BME280;32542;52.832;13.816;2023-11-21T00:51:02;100866.94;;;21.18;54.17
17254;BME280;32542;52.832;13.816;2023-11-21T00:54:06;100864.28;;;21.18;54.20
17254;BME280;32542;52.832;13.816;2023-11-21T00:57:09;100866.06;;;21.17;54.21
17254;BME280;32542;52.832;13.816;2023-11-21T01:00:14;100858.06;;;21.17;54.16
17254;BME280;32542;52.832;13.816;2023-11-21T01:03:18;100858.94;;;21.18;54.15
17254;BME280;32542;52.832;13.816;2023-11-21T01:06:23;100868.72;;;21.17;54.14
17254;BME280;32542;52.832;13.816;2023-11-21T01:09:26;100876.72;;;21.17;54.22
17254;BME280;32542;52.832;13.816;2023-11-21T01:12:29;100876.78;;;21.16;54.06
17254;BME280;32542;52.832;13.816;2023-11-21T01:15:33;100879.47;;;21.16;54.07
17254;BME280;32542;52.832;13.816;2023-11-21T01:18:36;100889.25;;;21.15;54.15
17254;BME280;32542;52.832;13.816;2023-11-21T01:21:41;100896.34;;;21.15;54.19
17254;BME280;32542;52.832;13.816;2023-11-21T01:24:44;100899.97;;;21.14;54.22
17254;BME280;32542;52.832;13.816;2023-11-21T01:27:47;100910.63;;;21.14;54.06
17254;BME280;32542;52.832;13.816;2023-11-21T01:30:50;100904.44;;;21.13;54.13
17254;BME280;32542;52.832;13.816;2023-11-21T01:33:54;100908.88;;;21.13;54.16
17254;BME280;32542;52.832;13.816;2023-11-21T01:36:59;100905.31;;;21.14;54.11
17254;BME280;32542;52.832;13.816;2023-11-21T01:40:03;100903.56;;;21.13;54.12
17254;BME280;32542;52.832;13.816;2023-11-21T01:43:10;100898.22;;;21.13;54.07
17254;BME280;32542;52.832;13.816;2023-11-21T01:46:13;100899.97;;;21.14;54.06
17254;BME280;32542;52.832;13.816;2023-11-21T01:49:17;100899.09;;;21.13;54.03
17254;BME280;32542;52.832;13.816;2023-11-21T01:52:23;100902.72;;;21.12;54.08
17254;BME280;32542;52.832;13.816;2023-11-21T01:55:28;100914.22;;;21.13;54.07
17254;BME280;32542;52.832;13.816;2023-11-21T01:58:32;100913.38;;;21.12;54.15
17254;BME280;32542;52.832;13.816;2023-11-21T02:01:35;100912.50;;;21.12;54.06
17254;BME280;32542;52.832;13.816;2023-11-21T02:04:38;100920.53;;;21.10;54.00
17254;BME280;32542;52.832;13.816;2023-11-21T02:07:43;100918.75;;;21.11;54.04
17254;BME280;32542;52.832;13.816;2023-11-21T02:10:46;100919.69;;;21.10;54.03
17254;BME280;32542;52.832;13.816;2023-11-21T02:13:49;100919.69;;;21.10;53.98
17254;BME280;32542;52.832;13.816;2023-11-21T02:16:55;100922.34;;;21.10;54.07
17254;BME280;32542;52.832;13.816;2023-11-21T02:19:59;100927.69;;;21.10;54.04
17254;BME280;32542;52.832;13.816;2023-11-21T02:23:03;100920.53;;;21.10;54.04
17254;BME280;32542;52.832;13.816;2023-11-21T02:26:06;100919.69;;;21.10;53.93
17254;BME280;32542;52.832;13.816;2023-11-21T02:29:11;100918.81;;;21.09;53.95
17254;BME280;32542;52.832;13.816;2023-11-21T02:32:14;100932.13;;;21.09;53.87
17254;BME280;32542;52.832;13.816;2023-11-21T02:35:20;100939.25;;;21.09;54.05
17254;BME280;32542;52.832;13.816;2023-11-21T02:38:25;100937.47;;;21.09;53.90
17254;BME280;32542;52.832;13.816;2023-11-21T02:41:29;100937.47;;;21.09;53.93
17254;BME280;32542;52.832;13.816;2023-11-21T02:44:32;100937.53;;;21.08;54.00
17254;BME280;32542;52.832;13.816;2023-11-21T02:47:36;100939.34;;;21.07;53.86
17254;BME280;32542;52.832;13.816;2023-11-21T02:50:39;100941.13;;;21.07;53.93
17254;BME280;32542;52.832;13.816;2023-11-21T02:53:43;100934.94;;;21.06;53.98
17254;BME280;32542;52.832;13.816;2023-11-21T02:56:48;100950.91;;;21.06;53.93
17254;BME280;32542;52.832;13.816;2023-11-21T02:59:51;100946.53;;;21.05;54.03
17254;BME280;32542;52.832;13.816;2023-11-21T03:02:55;100949.19;;;21.05;53.88
17254;BME280;32542;52.832;13.816;2023-11-21T03:06:00;100951.84;;;21.05;53.97
17254;BME280;32542;52.832;13.816;2023-11-21T03:09:04;100953.66;;;21.05;53.95
17254;BME280;32542;52.832;13.816;2023-11-21T03:12:09;100952.72;;;21.06;53.92
17254;BME280;32542;52.832;13.816;2023-11-21T03:15:13;100960.72;;;21.06;53.99
17254;BME280;32542;52.832;13.816;2023-11-21T03:18:17;100960.72;;;21.06;53.83
17254;BME280;32542;52.832;13.816;2023-11-21T03:21:20;100958.06;;;21.06;53.91
17254;BME280;32542;52.832;13.816;2023-11-21T03:24:24;100958.97;;;21.05;53.83
17254;BME280;32542;52.832;13.816;2023-11-21T03:27:28;100965.16;;;21.05;53.80
17254;BME280;32542;52.832;13.816;2023-11-21T03:30:31;100968.75;;;21.04;53.83
17254;BME280;32542;52.832;13.816;2023-11-21T03:33:34;100973.25;;;21.04;53.86
17254;BME280;32542;52.832;13.816;2023-11-21T03:36:37;100973.25;;;21.04;53.83
17254;BME280;32542;52.832;13.816;2023-11-21T03:39:42;100978.56;;;21.04;53.95
17254;BME280;32542;52.832;13.816;2023-11-21T03:42:44;100980.34;;;21.03;53.90
17254;BME280;32542;52.832;13.816;2023-11-21T03:45:47;100976.81;;;21.03;53.82
17254;BME280;32542;52.832;13.816;2023-11-21T03:48:51;100983.00;;;21.03;53.88
17254;BME280;32542;52.832;13.816;2023-11-21T03:51:54;100986.56;;;21.04;53.78
17254;BME280;32542;52.832;13.816;2023-11-21T03:54:58;100989.13;;;21.05;53.82
17254;BME280;32542;52.832;13.816;2023-11-21T03:58:01;100987.34;;;21.06;53.81
17254;BME280;32542;52.832;13.816;2023-11-21T04:01:05;100995.25;;;21.07;53.78
17254;BME280;32542;52.832;13.816;2023-11-21T04:04:08;101001.44;;;21.08;53.71
17254;BME280;32542;52.832;13.816;2023-11-21T04:07:11;101005.91;;;21.07;53.82
17254;BME280;32542;52.832;13.816;2023-11-21T04:10:17;101001.38;;;21.09;53.68
17254;BME280;32542;52.832;13.816;2023-11-21T04:13:20;101007.63;;;21.08;53.64
17254;BME280;32542;52.832;13.816;2023-11-21T04:16:23;101004.94;;;21.08;53.61
17254;BME280;32542;52.832;13.816;2023-11-21T04:19:26;101012.03;;;21.09;53.59
17254;BME280;32542;52.832;13.816;2023-11-21T04:22:29;101018.22;;;21.10;53.62
17254;BME280;32542;52.832;13.816;2023-11-21T04:25:33;101021.72;;;21.10;53.57
17254;BME280;32542;52.832;13.816;2023-11-21T04:28:36;101020.88;;;21.10;53.68
17254;BME280;32542;52.832;13.816;2023-11-21T04:31:39;101016.34;;;21.12;53.60
17254;BME280;32542;52.832;13.816;2023-11-21T04:34:43;101033.19;;;21.12;53.61
17254;BME280;32542;52.832;13.816;2023-11-21T04:37:46;101035.00;;;21.12;53.44
17254;BME280;32542;52.832;13.816;2023-11-21T04:40:51;101044.69;;;21.13;53.67
17254;BME280;32542;52.832;13.816;2023-11-21T04:43:54;101044.69;;;21.13;53.65
17254;BME280;32542;52.832;13.816;2023-11-21T04:46:57;101047.34;;;21.13;53.55
17254;BME280;32542;52.832;13.816;2023-11-21T04:50:02;101047.34;;;21.13;53.56
17254;BME280;32542;52.832;13.816;2023-11-21T04:53:05;101052.69;;;21.13;53.50
17254;BME280;32542;52.832;13.816;2023-11-21T04:56:09;101057.00;;;21.15;53.52
17254;BME280;32542;52.832;13.816;2023-11-21T04:59:12;101061.47;;;21.15;53.49
17254;BME280;32542;52.832;13.816;2023-11-21T05:02:15;101067.66;;;21.15;53.58
17254;BME280;32542;52.832;13.816;2023-11-21T05:05:36;101072.13;;;21.15;53.39
17254;BME280;32542;52.832;13.816;2023-11-21T05:08:39;101073.88;;;21.16;53.43
17254;BME280;32542;52.832;13.816;2023-11-21T05:11:43;101076.44;;;21.17;53.42
17254;BME280;32542;52.832;13.816;2023-11-21T05:14:46;101078.25;;;21.17;53.40
17254;BME280;32542;52.832;13.816;2023-11-21T05:17:50;101091.56;;;21.17;53.50
17254;BME280;32542;52.832;13.816;2023-11-21T05:20:54;101082.66;;;21.18;53.44
17254;BME280;32542;52.832;13.816;2023-11-21T05:23:57;101086.22;;;21.17;53.47
17254;BME280;32542;52.832;13.816;2023-11-21T05:27:01;101100.41;;;21.17;53.46
17254;BME280;32542;52.832;13.816;2023-11-21T05:30:06;101102.22;;;21.17;53.47
17254;BME280;32542;52.832;13.816;2023-11-21T05:33:11;101104.88;;;21.17;53.32
17254;BME280;32542;52.832;13.816;2023-11-21T05:36:14;101101.38;;;21.16;53.31
17254;BME280;32542;52.832;13.816;2023-11-21T05:39:17;101115.53;;;21.17;53.40
17254;BME280;32542;52.832;13.816;2023-11-21T05:42:22;101116.47;;;21.16;53.33
17254;BME280;32542;52.832;13.816;2023-11-21T05:45:25;101121.81;;;21.16;53.36
17254;BME280;32542;52.832;13.816;2023-11-21T05:48:28;101126.25;;;21.15;53.33
17254;BME280;32542;52.832;13.816;2023-11-21T05:51:31;101118.34;;;21.14;53.40
17254;BME280;32542;52.832;13.816;2023-11-21T05:54:34;101124.53;;;21.14;53.46
17254;BME280;32542;52.832;13.816;2023-11-21T05:57:40;101134.31;;;21.14;53.40
17254;BME280;32542;52.832;13.816;2023-11-21T06:00:43;101131.66;;;21.14;53.42
17254;BME280;32542;52.832;13.816;2023-11-21T06:03:46;101134.31;;;21.14;53.39
17254;BME280;32542;52.832;13.816;2023-11-21T06:06:51;101145.84;;;21.14;53.46
17254;BME280;32542;52.832;13.816;2023-11-21T06:09:54;101143.22;;;21.13;53.46
17254;BME280;32542;52.832;13.816;2023-11-21T06:12:59;101152.00;;;21.15;53.36
17254;BME280;32542;52.832;13.816;2023-11-21T06:16:06;101150.28;;;21.14;53.47
17254;BME280;32542;52.832;13.816;2023-11-21T06:19:09;101164.53;;;21.13;53.46
17254;BME280;32542;52.832;13.816;2023-11-21T06:22:12;101164.53;;;21.13;53.35
17254;BME280;32542;52.832;13.816;2023-11-21T06:25:15;101172.50;;;21.13;53.42
17254;BME280;32542;52.832;13.816;2023-11-21T06:28:20;101174.34;;;21.12;53.46
17254;BME280;32542;52.832;13.816;2023-11-21T06:31:23;101184.13;;;21.12;53.38
17254;BME280;32542;52.832;13.816;2023-11-21T06:34:26;101194.78;;;21.12;53.41
17254;BME280;32542;52.832;13.816;2023-11-21T06:37:30;101195.69;;;21.11;53.45
17254;BME280;32542;52.832;13.816;2023-11-21T06:40:33;101209.88;;;21.11;53.40
17254;BME280;32542;52.832;13.816;2023-11-21T06:43:37;101207.22;;;21.11;53.44
17254;BME280;32542;52.832;13.816;2023-11-21T06:46:40;101210.75;;;21.12;53.38
17254;BME280;32542;52.832;13.816;2023-11-21T06:49:44;101221.41;;;21.12;53.39
17254;BME280;32542;52.832;13.816;2023-11-21T06:52:49;101211.63;;;21.12;53.43
17254;BME280;32542;52.832;13.816;2023-11-21T06:55:52;101220.44;;;21.13;53.38
17254;BME280;32542;52.832;13.816;2023-11-21T06:58:57;101217.78;;;21.13;53.40
17254;BME280;32542;52.832;13.816;2023-11-21T07:02:00;101220.44;;;21.13;53.46
17254;BME280;32542;52.832;13.816;2023-11-21T07:05:03;101221.41;;;21.12;53.47
17254;BME280;32542;52.832;13.816;2023-11-21T07:08:07;101222.28;;;21.12;53.36
17254;BME280;32542;52.832;13.816;2023-11-21T07:11:10;101240.03;;;21.12;53.30
17254;BME280;32542;52.832;13.816;2023-11-21T07:14:15;101247.16;;;21.11;53.45
17254;BME280;32542;52.832;13.816;2023-11-21T07:17:18;101243.56;;;21.12;53.35
17254;BME280;32542;52.832;13.816;2023-11-21T07:20:21;101236.50;;;21.11;53.37
17254;BME280;32542;52.832;13.816;2023-11-21T07:23:25;101240.03;;;21.12;53.33
17254;BME280;32542;52.832;13.816;2023-11-21T07:26:28;101232.06;;;21.12;53.34
17254;BME280;32542;52.832;13.816;2023-11-21T07:29:32;101238.25;;;21.12;53.37
17254;BME280;32542;52.832;13.816;2023-11-21T07:32:35;101247.97;;;21.13;53.34
17254;BME280;32542;52.832;13.816;2023-11-21T07:35:39;101257.69;;;21.14;53.29
17254;BME280;32542;52.832;13.816;2023-11-21T07:38:42;101260.34;;;21.14;53.37
17254;BME280;32542;52.832;13.816;2023-11-21T07:41:45;101261.16;;;21.16;53.32
17254;BME280;32542;52.832;13.816;2023-11-21T07:44:52;101271.84;;;21.15;53.28
17254;BME280;32542;52.832;13.816;2023-11-21T07:47:55;101266.53;;;21.15;53.37
17254;BME280;32542;52.832;13.816;2023-11-21T07:50:58;101267.47;;;21.14;53.33
17254;BME280;32542;52.832;13.816;2023-11-21T07:54:01;101278.13;;;21.14;53.33
17254;BME280;32542;52.832;13.816;2023-11-21T07:57:04;101279.84;;;21.15;53.30
17254;BME280;32542;52.832;13.816;2023-11-21T08:00:10;101291.44;;;21.14;53.32
17254;BME280;32542;52.832;13.816;2023-11-21T08:03:14;101295.00;;;21.13;53.37
17254;BME280;32542;52.832;13.816;2023-11-21T08:06:17;101295.00;;;21.13;53.41
17254;BME280;32542;52.832;13.816;2023-11-21T08:09:20;101310.09;;;21.14;53.46
17254;BME280;32542;52.832;13.816;2023-11-21T08:12:25;101312.69;;;21.15;53.47
17254;BME280;32542;52.832;13.816;2023-11-21T08:15:30;101308.22;;;21.16;53.58
17254;BME280;32542;52.832;13.816;2023-11-21T08:18:34;101309.91;;;21.18;53.63
17254;BME280;32542;52.832;13.816;2023-11-21T08:21:37;101308.03;;;21.20;53.70
17254;BME280;32542;52.832;13.816;2023-11-21T08:24:41;101314.16;;;21.22;53.76
17254;BME280;32542;52.832;13.816;2023-11-21T08:27:44;101315.03;;;21.23;53.80
17254;BME280;32542;52.832;13.816;2023-11-21T08:30:49;101309.72;;;21.23;53.74
17254;BME280;32542;52.832;13.816;2023-11-21T08:33:52;101315.84;;;21.25;53.87
17254;BME280;32542;52.832;13.816;2023-11-21T08:36:57;101318.50;;;21.25;53.77
17254;BME280;32542;52.832;13.816;2023-11-21T08:40:00;101317.63;;;21.24;53.85
17254;BME280;32542;52.832;13.816;2023-11-21T08:43:04;101323.84;;;21.25;53.78
17254;BME280;32542;52.832;13.816;2023-11-21T08:46:08;101329.16;;;21.25;53.92
17254;BME280;32542;52.832;13.816;2023-11-21T08:49:11;101336.22;;;21.26;53.77
17254;BME280;32542;52.832;13.816;2023-11-21T08:52:14;101341.53;;;21.26;53.83
17254;BME280;32542;52.832;13.816;2023-11-21T08:55:20;101353.94;;;21.27;53.88
17254;BME280;32542;52.832;13.816;2023-11-21T08:58:23;101347.66;;;21.28;53.85
17254;BME280;32542;52.832;13.816;2023-11-21T09:01:28;101346.75;;;21.29;53.79
17254;BME280;32542;52.832;13.816;2023-11-21T09:04:32;101360.00;;;21.30;53.85
17254;BME280;32542;52.832;13.816;2023-11-21T09:07:36;101368.88;;;21.31;53.80
17254;BME280;32542;52.832;13.816;2023-11-21T09:10:39;101363.53;;;21.31;53.74
17254;BME280;32542;52.832;13.816;2023-11-21T09:13:44;101376.00;;;21.30;53.34
17254;BME280;32542;52.832;13.816;2023-11-21T09:16:49;101378.28;;;21.18;51.23
17254;BME280;32542;52.832;13.816;2023-11-21T09:19:53;101378.47;;;21.13;51.13
17254;BME280;32542;52.832;13.816;2023-11-21T09:22:56;101397.16;;;21.12;50.90
17254;BME280;32542;52.832;13.816;2023-11-21T09:25:59;101393.63;;;21.11;51.17
17254;BME280;32542;52.832;13.816;2023-11-21T09:29:03;101397.16;;;21.12;51.36
17254;BME280;32542;52.832;13.816;2023-11-21T09:32:07;101393.56;;;21.13;51.44
17254;BME280;32542;52.832;13.816;2023-11-21T09:35:13;101397.16;;;21.12;51.41
17254;BME280;32542;52.832;13.816;2023-11-21T09:38:17;101406.03;;;21.12;51.38
17254;BME280;32542;52.832;13.816;2023-11-21T09:41:25;101401.63;;;21.11;51.45
17254;BME280;32542;52.832;13.816;2023-11-21T09:44:35;101410.16;;;20.96;48.61
17254;BME280;32542;52.832;13.816;2023-11-21T09:47:40;101418.38;;;20.90;46.41
17254;BME280;32542;52.832;13.816;2023-11-21T09:50:47;101428.41;;;20.83;45.11
17254;BME280;32542;52.832;13.816;2023-11-21T09:53:54;101428.56;;;20.79;45.48
17254;BME280;32542;52.832;13.816;2023-11-21T09:56:57;101427.69;;;20.78;45.90
17254;BME280;32542;52.832;13.816;2023-11-21T10:00:02;101431.16;;;20.80;45.96
17254;BME280;32542;52.832;13.816;2023-11-21T10:03:09;101433.78;;;20.82;45.94
17254;BME280;32542;52.832;13.816;2023-11-21T10:06:13;101434.53;;;20.85;45.93
17254;BME280;32542;52.832;13.816;2023-11-21T10:09:16;101438.81;;;20.89;45.93
17254;BME280;32542;52.832;13.816;2023-11-21T10:12:23;101436.03;;;20.92;46.20
17254;BME280;32542;52.832;13.816;2023-11-21T10:15:27;101441.13;;;20.98;nan
17254;BME280;32542;52.832;13.816;2023-11-21T10:18:32;101433.94;;;21.00;46.62
17254;BME280;32542;52.832;13.816;2023-11-21T10:21:36;101443.59;;;21.05;46.80
17254;BME280;32542;52.832;13.816;2023-11-21T10:24:40;101440.88;;;21.06;46.95
17254;BME280;32542;52.832;13.816;2023-11-21T10:27:57;101439.88;;;21.09;47.17
17254;BME280;32542;52.832;13.816;2023-11-21T10:31:02;101450.47;;;21.10;47.32
17254;BME280;32542;52.832;13.816;2023-11-21T10:34:17;101454.81;;;21.13;47.47
17254;BME280;32542;52.832;13.816;2023-11-21T10:37:20;101451.25;;;21.14;47.72
17254;BME280;32542;52.832;13.816;2023-11-21T10:40:23;101450.28;;;21.15;47.73
17254;BME280;32542;52.832;13.816;2023-11-21T10:43:26;101457.38;;;21.16;47.95
17254;BME280;32542;52.832;13.816;2023-11-21T10:46:29;101462.69;;;21.16;47.93
17254;BME280;32542;52.832;13.816;2023-11-21T10:49:36;101462.63;;;21.17;48.18
17254;BME280;32542;52.832;13.816;2023-11-21T10:52:42;101470.63;;;21.17;48.35
17254;BME280;32542;52.832;13.816;2023-11-21T10:55:48;101471.50;;;21.18;48.35
17254;BME280;32542;52.832;13.816;2023-11-21T10:58:52;101475.03;;;21.18;48.46
17254;BME280;32542;52.832;13.816;2023-11-21T11:01:57;101473.22;;;21.19;48.50
17254;BME280;32542;52.832;13.816;2023-11-21T11:05:05;101472.38;;;21.18;48.59
17254;BME280;32542;52.832;13.816;2023-11-21T11:08:15;101479.50;;;21.18;48.63
17254;BME280;32542;52.832;13.816;2023-11-21T11:11:20;101471.50;;;21.18;48.78
17254;BME280;32542;52.832;13.816;2023-11-21T11:14:24;101492.81;;;21.18;48.83
17254;BME280;32542;52.832;13.816;2023-11-21T11:17:28;101490.13;;;21.18;48.99
17254;BME280;32542;52.832;13.816;2023-11-21T11:20:37;101490.13;;;21.18;49.09
17254;BME280;32542;52.832;13.816;2023-11-21T11:23:49;101503.47;;;21.18;49.20
17254;BME280;32542;52.832;13.816;2023-11-21T11:27:06;101496.38;;;21.17;49.17
17254;BME280;32542;52.832;13.816;2023-11-21T11:30:20;101504.38;;;21.17;49.16
17254;BME280;32542;52.832;13.816;2023-11-21T11:33:35;101502.66;;;21.16;49.35
17254;BME280;32542;52.832;13.816;2023-11-21T11:36:46;101509.75;;;21.15;49.37
17254;BME280;32542;52.832;13.816;2023-11-21T11:39:51;101521.28;;;21.16;49.42
17254;BME280;32542;52.832;13.816;2023-11-21T11:42:56;101526.63;;;21.16;49.55
17254;BME280;32542;52.832;13.816;2023-11-21T11:46:03;101532.00;;;21.14;49.57
17254;BME280;32542;52.832;13.816;2023-11-21T11:49:06;101545.34;;;21.14;49.61
17254;BME280;32542;52.832;13.816;2023-11-21T11:52:33;101543.50;;;21.15;49.73
17254;BME280;32542;52.832;13.816;2023-11-21T11:55:36;101548.84;;;21.15;49.64
17254;BME280;32542;52.832;13.816;2023-11-21T11:58:41;101564.81;;;21.15;49.80
17254;BME280;32542;52.832;13.816;2023-11-21T12:01:45;101574.56;;;21.16;49.75
17254;BME280;32542;52.832;13.816;2023-11-21T12:04:49;101572.81;;;21.15;49.86
17254;BME280;32542;52.832;13.816;2023-11-21T12:07:55;101578.13;;;21.15;49.78
17254;BME280;32542;52.832;13.816;2023-11-21T12:10:59;101586.09;;;21.16;49.83
17254;BME280;32542;52.832;13.816;2023-11-21T12:14:04;101583.47;;;21.15;49.99
17254;BME280;32542;52.832;13.816;2023-11-21T12:17:08;101584.34;;;21.15;50.04
17254;BME280;32542;52.832;13.816;2023-11-21T12:20:12;101589.72;;;21.14;49.99
17254;BME280;32542;52.832;13.816;2023-11-21T12:23:20;101592.41;;;21.14;50.09
17254;BME280;32542;52.832;13.816;2023-11-21T12:26:23;101593.31;;;21.13;50.20
17254;BME280;32542;52.832;13.816;2023-11-21T12:29:26;101593.31;;;21.13;50.19
17254;BME280;32542;52.832;13.816;2023-11-21T12:32:31;101606.63;;;21.13;50.13
17254;BME280;32542;52.832;13.816;2023-11-21T12:35:35;101612.81;;;21.13;50.17
17254;BME280;32542;52.832;13.816;2023-11-21T12:38:40;101618.16;;;21.13;50.12
17254;BME280;32542;52.832;13.816;2023-11-21T12:41:44;101618.16;;;21.13;50.20
17254;BME280;32542;52.832;13.816;2023-11-21T12:44:47;101621.69;;;21.14;50.35
17254;BME280;32542;52.832;13.816;2023-11-21T12:47:51;101620.81;;;21.13;50.26
17254;BME280;32542;52.832;13.816;2023-11-21T12:50:54;101632.28;;;21.15;50.31
17254;BME280;32542;52.832;13.816;2023-11-21T12:53:59;101628.75;;;21.15;50.37
17254;BME280;32542;52.832;13.816;2023-11-21T12:57:03;101627.91;;;21.14;50.44
17254;BME280;32542;52.832;13.816;2023-11-21T13:00:11;101646.53;;;21.14;50.46
17254;BME280;32542;52.832;13.816;2023-11-21T13:03:28;101645.66;;;21.14;50.50
17254;BME280;32542;52.832;13.816;2023-11-21T13:06:33;101651.91;;;21.13;50.51
17254;BME280;32542;52.832;13.816;2023-11-21T13:09:41;101654.56;;;21.13;50.53
17254;BME280;32542;52.832;13.816;2023-11-21T13:12:45;101658.09;;;21.13;50.68
17254;BME280;32542;52.832;13.816;2023-11-21T13:15:51;101668.75;;;21.13;50.62
17254;BME280;32542;52.832;13.816;2023-11-21T13:18:54;101668.81;;;21.12;50.68
17254;BME280;32542;52.832;13.816;2023-11-21T13:21:57;101671.44;;;21.13;50.65
17254;BME280;32542;52.832;13.816;2023-11-21T13:25:02;101685.63;;;21.14;50.69
17254;BME280;32542;52.832;13.816;2023-11-21T13:28:09;101682.06;;;21.13;50.77
17254;BME280;32542;52.832;13.816;2023-11-21T13:31:13;101692.66;;;21.15;50.77
17254;BME280;32542;52.832;13.816;2023-11-21T13:34:28;101699.75;;;21.16;50.80
17254;BME280;32542;52.832;13.816;2023-11-21T13:37:35;101708.63;;;21.16;50.78
17254;BME280;32542;52.832;13.816;2023-11-21T13:40:40;101697.09;;;21.16;50.87
17254;BME280;32542;52.832;13.816;2023-11-21T13:43:47;101698.81;;;21.17;50.93
17254;BME280;32542;52.832;13.816;2023-11-21T13:46:58;101706.88;;;21.15;51.07
17254;BME280;32542;52.832;13.816;2023-11-21T13:50:02;101705.97;;;21.15;50.94
17254;BME280;32542;52.832;13.816;2023-11-21T13:53:05;101707.75;;;21.16;51.08
17254;BME280;32542;52.832;13.816;2023-11-21T13:56:19;101711.31;;;21.15;51.09
17254;BME280;32542;52.832;13.816;2023-11-21T13:59:26;101719.28;;;21.16;51.13
17254;BME280;32542;52.832;13.816;2023-11-21T14:02:32;101730.78;;;21.17;51.33
17254;BME280;32542;52.832;13.816;2023-11-21T14:05:41;101733.41;;;21.18;51.34
17254;BME280;32542;52.832;13.816;2023-11-21T14:08:44;101742.25;;;21.19;51.45
17254;BME280;32542;52.832;13.816;2023-11-21T14:11:52;101744.91;;;21.19;51.37
17254;BME280;32542;52.832;13.816;2023-11-21T14:14:55;101744.91;;;21.19;51.40
17254;BME280;32542;52.832;13.816;2023-11-21T14:17:58;101744.91;;;21.19;51.44
17254;BME280;32542;52.832;13.816;2023-11-21T14:21:04;101739.59;;;21.19;51.30
17254;BME280;32542;52.832;13.816;2023-11-21T14:24:10;101750.25;;;21.19;51.28
17254;BME280;32542;52.832;13.816;2023-11-21T14:27:15;101755.56;;;21.19;51.30
17254;BME280;32542;52.832;13.816;2023-11-21T14:30:19;101754.72;;;21.18;51.29
17254;BME280;32542;52.832;13.816;2023-11-21T14:33:24;101765.41;;;21.17;51.33
17254;BME280;32542;52.832;13.816;2023-11-21T14:36:27;101762.75;;;21.17;51.31
17254;BME280;32542;52.832;13.816;2023-11-21T14:39:30;101775.16;;;21.18;51.33
17254;BME280;32542;52.832;13.816;2023-11-21T14:42:38;101780.53;;;21.16;51.40
17254;BME280;32542;52.832;13.816;2023-11-21T14:45:41;101780.53;;;21.16;51.35
17254;BME280;32542;52.832;13.816;2023-11-21T14:48:44;101786.72;;;21.17;51.43
17254;BME280;32542;52.832;13.816;2023-11-21T14:51:57;101789.38;;;21.17;51.37
17254;BME280;32542;52.832;13.816;2023-11-21T14:55:05;101796.47;;;21.18;51.32
17254;BME280;32542;52.832;13.816;2023-11-21T14:58:24;101806.19;;;21.19;51.40
17254;BME280;32542;52.832;13.816;2023-11-21T15:01:30;101815.03;;;21.19;51.66
17254;BME280;32542;52.832;13.816;2023-11-21T15:04:46;101815.94;;;21.20;51.83
17254;BME280;32542;52.832;13.816;2023-11-21T15:07:50;101817.66;;;21.21;51.86
17254;BME280;32542;52.832;13.816;2023-11-21T15:10:56;101821.16;;;21.23;51.58
17254;BME280;32542;52.832;13.816;2023-11-21T15:14:01;101821.16;;;21.23;51.59
17254;BME280;32542;52.832;13.816;2023-11-21T15:17:08;101837.16;;;21.23;51.50
17254;BME280;32542;52.832;13.816;2023-11-21T15:20:12;101829.19;;;21.21;51.46
17254;BME280;32542;52.832;13.816;2023-11-21T15:23:21;101830.06;;;21.22;51.19
17254;BME280;32542;52.832;13.816;2023-11-21T15:26:24;101836.31;;;21.21;50.84
17254;BME280;32542;52.832;13.816;2023-11-21T15:29:32;101839.91;;;21.20;50.67
17254;BME280;32542;52.832;13.816;2023-11-21T15:32:36;101836.34;;;21.19;50.67
17254;BME280;32542;52.832;13.816;2023-11-21T15:35:39;101847.00;;;21.19;50.70
17254;BME280;32542;52.832;13.816;2023-11-21T15:38:43;101852.34;;;21.19;50.82
17254;BME280;32542;52.832;13.816;2023-11-21T15:41:46;101862.94;;;21.21;51.02
17254;BME280;32542;52.832;13.816;2023-11-21T15:44:51;101871.78;;;21.23;50.95
17254;BME280;32542;52.832;13.816;2023-11-21T15:47:54;101875.28;;;21.23;50.82
17254;BME280;32542;52.832;13.816;2023-11-21T15:50:58;101878.84;;;21.24;50.78
17254;BME280;32542;52.832;13.816;2023-11-21T15:54:01;101868.19;;;21.24;50.75